createdAt,value
2023-11-12T00:00:57.212Z,2.70
2023-11-12T00:03:24.218Z,2.70
2023-11-12T00:05:52.628Z,3.30
2023-11-12T00:08:19.725Z,4.00
2023-11-12T00:10:48.394Z,3.00
2023-11-12T00:13:15.416Z,2.70
2023-11-12T00:15:42.462Z,2.80
2023-11-12T00:18:09.642Z,2.30
2023-11-12T00:20:36.652Z,1.80
2023-11-12T00:23:03.537Z,1.70
2023-11-12T00:25:30.485Z,2.00
2023-11-12T00:27:58.567Z,1.60
2023-11-12T00:30:25.324Z,1.20
2023-11-12T00:32:53.560Z,1.20
2023-11-12T00:35:20.794Z,1.00
2023-11-12T00:37:48.464Z,1.10
2023-11-12T00:40:17.126Z,1.30
2023-11-12T00:42:44.580Z,1.40
2023-11-12T00:45:13.287Z,1.00
2023-11-12T00:47:40.351Z,1.10
2023-11-12T00:50:09.336Z,1.40
2023-11-12T00:52:36.595Z,1.50
2023-11-12T00:55:04.122Z,1.30
2023-11-12T00:57:31.471Z,1.40
2023-11-12T00:59:58.885Z,1.40
2023-11-12T01:02:28.325Z,1.50
2023-11-12T01:04:55.417Z,1.60
2023-11-12T01:07:22.331Z,1.70
2023-11-12T01:09:50.329Z,1.70
2023-11-12T01:12:20.092Z,1.50
2023-11-12T01:14:48.508Z,1.70
2023-11-12T01:17:15.741Z,1.60
2023-11-12T01:19:42.802Z,1.40
2023-11-12T01:22:09.839Z,1.40
2023-11-12T01:24:38.256Z,1.40
2023-11-12T01:27:05.276Z,1.30
2023-11-12T01:29:32.735Z,1.50
2023-11-12T01:31:59.987Z,1.90
2023-11-12T01:34:26.812Z,2.00
2023-11-12T01:36:53.759Z,2.40
2023-11-12T01:39:20.618Z,2.20
2023-11-12T01:41:47.617Z,2.60
2023-11-12T01:44:14.637Z,2.60
2023-11-12T01:46:41.440Z,2.40
2023-11-12T01:49:08.336Z,3.40
2023-11-12T01:51:36.200Z,3.60
2023-11-12T01:54:03.748Z,3.00
2023-11-12T01:56:31.071Z,3.50
2023-11-12T01:58:58.249Z,3.70
2023-11-12T02:01:25.429Z,3.80
2023-11-12T02:03:52.994Z,4.60
2023-11-12T02:06:20.730Z,3.60
2023-11-12T02:08:47.775Z,3.50
2023-11-12T02:11:14.667Z,4.20
2023-11-12T02:13:42.671Z,4.20
2023-11-12T02:16:10.528Z,4.70
2023-11-12T02:18:37.710Z,4.10
2023-11-12T02:21:04.950Z,3.90
2023-11-12T02:23:37.211Z,4.30
2023-11-12T02:26:04.452Z,4.10
2023-11-12T02:28:31.291Z,4.60
2023-11-12T02:30:58.520Z,3.90
2023-11-12T02:33:27.957Z,3.80
2023-11-12T02:35:56.133Z,4.60
2023-11-12T02:38:23.963Z,4.40
2023-11-12T02:40:51.827Z,4.40
2023-11-12T02:43:19.315Z,3.80
2023-11-12T02:45:47.189Z,3.80
2023-11-12T02:48:14.385Z,3.70
2023-11-12T02:50:42.217Z,4.00
2023-11-12T02:53:10.885Z,3.40
2023-11-12T02:55:38.119Z,3.30
2023-11-12T02:58:05.652Z,2.70
2023-11-12T03:00:34.075Z,2.80
2023-11-12T03:03:02.391Z,3.10
2023-11-12T03:05:29.888Z,2.70
2023-11-12T03:07:59.827Z,2.80
2023-11-12T03:10:26.985Z,2.50
2023-11-12T03:12:54.461Z,2.10
2023-11-12T03:15:21.508Z,2.30
2023-11-12T03:17:49.100Z,2.80
2023-11-12T03:20:16.579Z,2.50
2023-11-12T03:22:43.769Z,3.10
2023-11-12T03:25:10.643Z,2.10
2023-11-12T03:27:37.836Z,2.60
2023-11-12T03:30:06.378Z,2.70
2023-11-12T03:32:33.597Z,2.40
2023-11-12T03:35:01.634Z,2.50
2023-11-12T03:37:29.019Z,2.20
2023-11-12T03:39:57.364Z,1.50
2023-11-12T03:42:24.786Z,2.10
2023-11-12T03:44:51.731Z,2.70
2023-11-12T03:47:18.551Z,2.60
2023-11-12T03:49:45.854Z,2.70
2023-11-12T03:52:13.555Z,3.00
2023-11-12T03:54:40.534Z,2.60
2023-11-12T03:57:07.515Z,3.10
2023-11-12T03:59:36.641Z,4.20
2023-11-12T04:02:04.912Z,4.60
2023-11-12T04:04:32.126Z,4.40
2023-11-12T04:06:59.288Z,4.10
2023-11-12T04:09:26.450Z,4.10
2023-11-12T04:11:54.006Z,4.40
2023-11-12T04:14:21.351Z,4.80
2023-11-12T04:16:48.403Z,4.90
2023-11-12T04:19:15.329Z,4.60
2023-11-12T04:21:46.710Z,4.40
2023-11-12T04:24:13.834Z,4.60
2023-11-12T04:26:41.094Z,5.30
2023-11-12T04:29:08.929Z,4.70
2023-11-12T04:31:36.846Z,5.20
2023-11-12T04:34:04.627Z,4.60
2023-11-12T04:36:36.051Z,4.40
2023-11-12T04:39:03.982Z,5.30
2023-11-12T04:41:31.022Z,5.50
2023-11-12T04:43:58.259Z,4.70
2023-11-12T04:46:25.976Z,4.50
2023-11-12T04:48:52.857Z,4.70
2023-11-12T04:51:20.439Z,4.40
2023-11-12T04:53:48.751Z,4.50
2023-11-12T04:56:16.018Z,3.90
2023-11-12T04:58:43.128Z,4.00
2023-11-12T05:01:10.100Z,4.20
2023-11-12T05:03:37.278Z,3.20
2023-11-12T05:06:05.595Z,3.60
2023-11-12T05:08:32.620Z,3.50
2023-11-12T05:10:59.660Z,3.80
2023-11-12T05:13:26.855Z,4.00
2023-11-12T05:15:54.535Z,4.10
2023-11-12T05:18:21.914Z,4.30
2023-11-12T05:20:49.006Z,4.30
2023-11-12T05:23:16.065Z,4.70
2023-11-12T05:25:43.543Z,4.60
2023-11-12T05:28:10.615Z,4.90
2023-11-12T05:30:39.470Z,5.10
2023-11-12T05:33:06.366Z,5.10
2023-11-12T05:35:33.480Z,5.20
2023-11-12T05:38:00.624Z,5.20
2023-11-12T05:40:29.766Z,5.80
2023-11-12T05:42:56.711Z,5.40
2023-11-12T05:45:23.552Z,5.80
2023-11-12T05:47:50.600Z,5.60
2023-11-12T05:50:17.919Z,5.60
2023-11-12T05:52:44.857Z,5.20
2023-11-12T05:55:12.163Z,5.70
2023-11-12T05:57:39.337Z,5.60
2023-11-12T06:00:13.496Z,5.80
2023-11-12T06:02:40.596Z,5.40
2023-11-12T06:05:08.596Z,5.00
2023-11-12T06:07:35.700Z,5.20
2023-11-12T06:10:03.838Z,5.40
2023-11-12T06:12:31.741Z,4.70
2023-11-12T06:14:58.945Z,4.70
2023-11-12T06:17:25.984Z,4.40
2023-11-12T06:19:53.506Z,4.20
2023-11-12T06:22:20.898Z,4.60
2023-11-12T06:24:47.921Z,4.70
2023-11-12T06:27:15.001Z,4.90
2023-11-12T06:29:42.792Z,6.10
2023-11-12T06:32:09.901Z,5.80
2023-11-12T06:34:36.812Z,5.40
2023-11-12T06:37:04.450Z,6.10
2023-11-12T06:39:31.658Z,5.80
2023-11-12T06:41:58.802Z,6.00
2023-11-12T06:44:26.070Z,6.50
2023-11-12T06:46:52.940Z,6.00
2023-11-12T06:49:19.947Z,6.40
2023-11-12T06:51:47.095Z,6.70
2023-11-12T06:54:14.321Z,6.50
2023-11-12T06:56:41.269Z,6.20
2023-11-12T06:59:08.447Z,6.30
2023-11-12T07:01:36.504Z,6.60
2023-11-12T07:04:05.018Z,5.80
2023-11-12T07:06:32.258Z,6.40
2023-11-12T07:08:59.818Z,6.70
2023-11-12T07:11:26.685Z,6.00
2023-11-12T07:13:53.706Z,5.70
2023-11-12T07:16:21.207Z,5.80
2023-11-12T07:21:31.504Z,6.40
2023-11-12T07:23:58.804Z,6.10
2023-11-12T07:26:27.878Z,6.40
2023-11-12T07:28:55.120Z,6.20
2023-11-12T07:31:23.858Z,5.90
2023-11-12T07:33:51.384Z,6.40
2023-11-12T07:36:19.282Z,6.20
2023-11-12T07:38:46.395Z,6.00
2023-11-12T07:41:13.341Z,5.80
2023-11-12T07:43:41.445Z,5.90
2023-11-12T07:46:08.834Z,5.90
2023-11-12T07:48:36.644Z,5.60
2023-11-12T07:51:03.765Z,5.80
2023-11-12T07:53:30.729Z,5.40
2023-11-12T07:55:57.902Z,6.00
2023-11-12T07:58:25.299Z,5.50
2023-11-12T08:00:52.513Z,5.10
2023-11-12T08:03:21.232Z,4.90
2023-11-12T08:05:49.932Z,4.80
2023-11-12T08:08:17.033Z,4.50
2023-11-12T08:10:43.955Z,4.40
2023-11-12T08:13:10.905Z,3.80
2023-11-12T08:15:38.475Z,4.10
2023-11-12T08:18:08.732Z,3.70
2023-11-12T08:20:36.513Z,3.60
2023-11-12T08:23:04.258Z,3.30
2023-11-12T08:25:31.197Z,3.30
2023-11-12T08:27:58.374Z,3.50
2023-11-12T08:30:25.756Z,2.90
2023-11-12T08:32:52.819Z,2.90
2023-11-12T08:35:19.850Z,2.30
2023-11-12T08:37:47.146Z,2.50
2023-11-12T08:40:16.499Z,2.00
2023-11-12T08:42:44.137Z,1.60
2023-11-12T08:45:11.124Z,1.80
2023-11-12T08:47:37.971Z,1.70
2023-11-12T08:50:05.599Z,2.10
2023-11-12T08:52:32.856Z,1.60
2023-11-12T08:55:00.439Z,1.40
2023-11-12T08:57:27.804Z,1.40
2023-11-12T08:59:55.249Z,1.40
2023-11-12T09:02:23.122Z,1.10
2023-11-12T09:04:49.898Z,1.20
2023-11-12T09:07:16.997Z,0.80
2023-11-12T09:09:45.007Z,1.00
2023-11-12T09:12:12.394Z,0.90
2023-11-12T09:14:39.370Z,0.70
2023-11-12T09:17:07.473Z,0.70
2023-11-12T09:19:34.388Z,0.80
2023-11-12T09:22:01.535Z,0.80
2023-11-12T09:24:28.652Z,0.70
2023-11-12T09:26:55.527Z,1.20
2023-11-12T09:29:22.319Z,0.80
2023-11-12T09:31:49.434Z,1.00
2023-11-12T09:34:16.839Z,0.90
2023-11-12T09:36:43.864Z,1.40
2023-11-12T09:39:14.410Z,1.30
2023-11-12T09:41:46.059Z,1.10
2023-11-12T09:44:14.871Z,1.10
2023-11-12T09:46:41.834Z,1.20
2023-11-12T09:49:09.433Z,1.40
2023-11-12T09:51:36.722Z,1.20
2023-11-12T09:54:04.210Z,1.10
2023-11-12T09:56:31.275Z,1.00
2023-11-12T09:58:58.080Z,1.20
2023-11-12T10:01:25.183Z,1.10
2023-11-12T10:03:53.115Z,1.20
2023-11-12T10:06:23.682Z,1.20
2023-11-12T10:08:51.062Z,1.60
2023-11-12T10:11:22.360Z,1.40
2023-11-12T10:13:51.759Z,1.30
2023-11-12T10:16:32.289Z,1.30
2023-11-12T10:19:16.063Z,1.20
2023-11-12T10:21:57.647Z,1.30
2023-11-12T10:24:28.650Z,1.20
2023-11-12T10:27:02.503Z,1.10
2023-11-12T10:29:29.747Z,1.50
2023-11-12T10:31:57.844Z,1.50
2023-11-12T10:34:27.931Z,1.40
2023-11-12T10:37:16.624Z,1.40
2023-11-12T10:42:14.942Z,1.50
2023-11-12T10:44:42.478Z,1.30
2023-11-12T10:47:09.940Z,1.50
2023-11-12T10:49:40.427Z,1.40
2023-11-12T10:52:08.993Z,1.10
2023-11-12T10:54:37.104Z,1.40
2023-11-12T10:57:04.639Z,1.10
2023-11-12T10:59:32.226Z,1.30
2023-11-12T11:02:02.451Z,1.00
2023-11-12T11:04:31.631Z,1.10
2023-11-12T11:06:59.665Z,1.10
2023-11-12T11:09:28.285Z,1.60
2023-11-12T11:11:55.198Z,1.00
2023-11-12T11:14:28.298Z,1.00
2023-11-12T11:16:55.703Z,1.30
2023-11-12T11:19:46.200Z,1.10
2023-11-12T11:22:25.882Z,1.00
2023-11-12T11:24:54.180Z,0.80
2023-11-12T11:27:25.128Z,1.20
2023-11-12T11:30:16.874Z,0.90
2023-11-12T11:33:04.309Z,0.90
2023-11-12T11:35:31.609Z,0.90
2023-11-12T11:38:12.313Z,0.90
2023-11-12T11:40:40.645Z,0.90
2023-11-12T11:43:23.386Z,0.80
2023-11-12T11:46:07.567Z,0.70
2023-11-12T11:48:35.205Z,0.80
2023-11-12T11:51:03.985Z,0.60
2023-11-12T11:53:32.690Z,0.60
2023-11-12T11:56:07.301Z,1.10
2023-11-12T11:58:41.719Z,0.70
2023-11-12T12:01:09.277Z,0.50
2023-11-12T12:03:37.049Z,0.70
2023-11-12T12:06:21.927Z,0.60
2023-11-12T12:08:52.806Z,0.80
2023-11-12T12:11:25.223Z,0.80
2023-11-12T12:13:57.113Z,0.80
2023-11-12T12:16:31.258Z,0.60
2023-11-12T12:18:58.638Z,0.70
2023-11-12T12:21:25.897Z,0.90
2023-11-12T12:23:52.982Z,0.80
2023-11-12T12:26:25.081Z,0.90
2023-11-12T12:28:53.286Z,0.90
2023-11-12T12:31:20.590Z,0.80
2023-11-12T12:34:10.307Z,0.50
2023-11-12T12:36:38.274Z,0.80
2023-11-12T12:39:09.454Z,0.70
2023-11-12T12:41:37.262Z,0.50
2023-11-12T12:44:05.320Z,0.60
2023-11-12T12:46:46.541Z,1.00
2023-11-12T12:49:29.197Z,1.00
2023-11-12T12:51:56.546Z,0.70
2023-11-12T12:54:24.417Z,0.70
2023-11-12T12:56:51.389Z,0.50
2023-11-12T12:59:18.399Z,0.50
2023-11-12T13:01:45.368Z,0.70
2023-11-12T13:04:12.596Z,0.80
2023-11-12T13:06:40.537Z,0.80
2023-11-12T13:09:17.664Z,0.80
2023-11-12T13:11:44.752Z,0.80
2023-11-12T13:14:11.963Z,0.70
2023-11-12T13:16:40.188Z,0.90
2023-11-12T13:19:14.751Z,0.90
2023-11-12T13:21:54.282Z,0.60
2023-11-12T13:24:27.225Z,0.60
2023-11-12T13:26:54.606Z,0.60
2023-11-12T13:29:23.135Z,0.60
2023-11-12T13:31:51.618Z,0.50
2023-11-12T13:34:19.098Z,0.50
2023-11-12T13:36:46.543Z,0.70
2023-11-12T13:39:15.264Z,0.70
2023-11-12T13:41:42.220Z,0.60
2023-11-12T13:44:10.121Z,0.80
2023-11-12T13:46:37.766Z,0.90
2023-11-12T13:49:06.771Z,1.00
2023-11-12T13:51:36.666Z,1.00
2023-11-12T13:54:11.170Z,1.00
2023-11-12T13:56:39.757Z,0.90
2023-11-12T13:59:06.683Z,1.40
2023-11-12T14:01:33.918Z,1.40
2023-11-12T14:04:01.449Z,1.40
2023-11-12T14:06:28.772Z,1.50
2023-11-12T14:08:56.836Z,1.40
2023-11-12T14:11:23.870Z,2.90
2023-11-12T14:13:51.466Z,4.00
2023-11-12T14:16:23.732Z,2.20
2023-11-12T14:18:51.412Z,1.90
2023-11-12T14:21:18.615Z,1.70
2023-11-12T14:23:45.817Z,1.80
2023-11-12T14:26:13.996Z,1.70
2023-11-12T14:28:42.167Z,2.10
2023-11-12T14:31:11.517Z,2.00
2023-11-12T14:33:40.213Z,2.00
2023-11-12T14:36:11.456Z,1.80
2023-11-12T14:38:38.612Z,2.30
2023-11-12T14:41:07.957Z,2.50
2023-11-12T14:43:38.613Z,1.90
2023-11-12T14:46:06.251Z,2.00
2023-11-12T14:48:36.152Z,2.30
2023-11-12T14:51:06.009Z,2.10
2023-11-12T14:53:33.182Z,2.60
2023-11-12T14:56:01.008Z,1.90
2023-11-12T14:58:28.023Z,2.60
2023-11-12T15:00:55.370Z,1.70
2023-11-12T15:03:25.493Z,2.00
2023-11-12T15:05:52.839Z,2.20
2023-11-12T15:08:20.686Z,2.40
2023-11-12T15:10:48.158Z,2.40
2023-11-12T15:13:15.196Z,2.30
2023-11-12T15:15:42.668Z,2.30
2023-11-12T15:18:10.631Z,2.20
2023-11-12T15:20:37.748Z,2.00
2023-11-12T15:23:04.609Z,2.10
2023-11-12T15:25:32.167Z,2.20
2023-11-12T15:27:59.437Z,2.20
2023-11-12T15:30:27.003Z,3.30
2023-11-12T15:32:54.279Z,3.00
2023-11-12T15:35:21.277Z,3.40
2023-11-12T15:37:48.258Z,3.10
2023-11-12T15:40:20.721Z,3.70
2023-11-12T15:42:54.339Z,3.30
2023-11-12T15:45:24.748Z,4.30
2023-11-12T15:47:52.453Z,3.80
2023-11-12T15:50:20.344Z,4.00
2023-11-12T15:52:48.021Z,4.80
2023-11-12T15:55:18.141Z,4.30
2023-11-12T15:57:45.747Z,4.00
2023-11-12T16:00:13.465Z,4.20
2023-11-12T16:02:41.298Z,4.80
2023-11-12T16:05:08.794Z,5.40
2023-11-12T16:07:35.845Z,4.60
2023-11-12T16:10:05.398Z,4.40
2023-11-12T16:12:36.395Z,5.00
2023-11-12T16:15:06.116Z,4.80
2023-11-12T16:17:33.446Z,4.60
2023-11-12T16:20:01.240Z,5.50
2023-11-12T16:22:28.606Z,4.50
2023-11-12T16:24:55.681Z,5.30
2023-11-12T16:27:22.848Z,5.00
2023-11-12T16:29:49.978Z,4.80
2023-11-12T16:32:20.773Z,4.50
2023-11-12T16:34:49.157Z,4.70
2023-11-12T16:37:16.085Z,4.60
2023-11-12T16:39:48.261Z,4.80
2023-11-12T16:42:16.227Z,4.80
2023-11-12T16:44:44.084Z,4.70
2023-11-12T16:47:11.873Z,4.70
2023-11-12T16:49:39.498Z,5.00
2023-11-12T16:52:09.220Z,4.50
2023-11-12T16:54:36.791Z,4.80
2023-11-12T16:57:12.833Z,5.20
2023-11-12T16:59:40.464Z,4.30
2023-11-12T17:02:08.872Z,4.70
2023-11-12T17:04:37.084Z,4.60
2023-11-12T17:07:04.805Z,4.90
2023-11-12T17:09:32.196Z,4.60
2023-11-12T17:11:59.290Z,5.20
2023-11-12T17:14:26.456Z,4.30
2023-11-12T17:16:55.136Z,5.00
2023-11-12T17:21:51.074Z,4.90
2023-11-12T17:24:18.492Z,4.80
2023-11-12T17:26:46.227Z,4.00
2023-11-12T17:29:13.292Z,5.00
2023-11-12T17:31:40.312Z,4.60
2023-11-12T17:34:07.423Z,5.60
2023-11-12T17:36:35.066Z,5.00
2023-11-12T17:39:01.996Z,5.10
2023-11-12T17:41:29.096Z,4.50
2023-11-12T17:43:59.149Z,5.60
2023-11-12T17:46:26.558Z,5.90
2023-11-12T17:48:55.416Z,4.90
2023-11-12T17:51:23.784Z,5.40
2023-11-12T17:53:50.901Z,5.60
2023-11-12T17:56:18.057Z,6.00
2023-11-12T17:58:45.782Z,5.60
2023-11-12T18:01:12.960Z,6.20
2023-11-12T18:03:41.327Z,6.00
2023-11-12T18:06:08.903Z,6.60
2023-11-12T18:08:36.812Z,6.10
2023-11-12T18:11:04.808Z,6.60
2023-11-12T18:13:34.268Z,5.70
2023-11-12T18:16:02.721Z,6.80
2023-11-12T18:18:30.212Z,6.40
2023-11-12T18:20:58.477Z,6.30
2023-11-12T18:23:25.709Z,6.80
2023-11-12T18:25:53.010Z,6.10
2023-11-12T18:28:20.512Z,6.10
2023-11-12T18:30:49.273Z,6.80
2023-11-12T18:33:17.384Z,6.80
2023-11-12T18:35:45.453Z,7.50
2023-11-12T18:38:12.710Z,6.70
2023-11-12T18:40:42.745Z,6.20
2023-11-12T18:43:12.564Z,6.90
2023-11-12T18:45:39.946Z,6.60
2023-11-12T18:48:08.785Z,6.80
2023-11-12T18:50:39.863Z,6.90
2023-11-12T18:53:08.011Z,6.50
2023-11-12T18:55:35.159Z,6.90
2023-11-12T18:58:02.705Z,7.10
2023-11-12T19:00:30.261Z,6.50
2023-11-12T19:02:57.885Z,7.60
2023-11-12T19:05:25.152Z,8.00
2023-11-12T19:07:52.326Z,7.40
2023-11-12T19:10:22.954Z,7.80
2023-11-12T19:12:50.835Z,7.60
2023-11-12T19:15:18.281Z,8.80
2023-11-12T19:17:45.965Z,8.90
2023-11-12T19:20:14.754Z,8.10
2023-11-12T19:22:42.527Z,8.20
2023-11-12T19:25:10.918Z,8.40
2023-11-12T19:27:39.469Z,8.60
2023-11-12T19:30:13.715Z,8.00
2023-11-12T19:32:43.272Z,7.90
2023-11-12T19:35:10.242Z,9.10
2023-11-12T19:37:38.213Z,8.90
2023-11-12T19:40:06.882Z,9.20
2023-11-12T19:42:34.305Z,9.00
2023-11-12T19:45:01.383Z,8.50
2023-11-12T19:47:32.257Z,8.40
2023-11-12T19:49:59.630Z,9.00
2023-11-12T19:52:26.730Z,8.80
2023-11-12T19:54:54.030Z,8.70
2023-11-12T19:57:21.225Z,9.00
2023-11-12T19:59:48.497Z,9.20
2023-11-12T20:02:15.950Z,9.00
2023-11-12T20:04:43.614Z,9.90
2023-11-12T20:07:10.802Z,9.60
2023-11-12T20:09:39.040Z,9.90
2023-11-12T20:12:06.989Z,9.30
2023-11-12T20:14:34.168Z,8.80
2023-11-12T20:17:01.434Z,8.80
2023-11-12T20:19:28.934Z,8.80
2023-11-12T20:21:56.482Z,9.50
2023-11-12T20:24:23.864Z,8.90
2023-11-12T20:26:54.570Z,10.40
2023-11-12T20:29:21.749Z,10.10
2023-11-12T20:31:54.071Z,9.80
2023-11-12T20:34:22.087Z,8.40
2023-11-12T20:36:51.004Z,10.00
2023-11-12T20:39:18.436Z,9.90
2023-11-12T20:41:46.788Z,10.10
2023-11-12T20:44:14.679Z,9.90
2023-11-12T20:46:45.892Z,9.70
2023-11-12T20:49:16.152Z,8.90
2023-11-12T20:51:47.387Z,9.20
2023-11-12T20:54:18.611Z,8.90
2023-11-12T20:56:46.400Z,9.70
2023-11-12T20:59:13.815Z,9.60
2023-11-12T21:01:41.208Z,9.80
2023-11-12T21:04:12.361Z,9.70
2023-11-12T21:06:43.357Z,10.40
2023-11-12T21:09:11.780Z,9.40
2023-11-12T21:11:46.993Z,8.20
2023-11-12T21:14:16.117Z,9.10
2023-11-12T21:16:43.815Z,9.20
2023-11-12T21:19:11.424Z,8.60
2023-11-12T21:21:38.627Z,9.70
2023-11-12T21:24:06.508Z,9.80
2023-11-12T21:26:34.253Z,9.00
2023-11-12T21:29:02.198Z,9.20
2023-11-12T21:31:29.978Z,9.10
2023-11-12T21:33:56.960Z,8.40
2023-11-12T21:36:23.791Z,7.80
2023-11-12T21:38:51.605Z,9.20
2023-11-12T21:41:18.553Z,7.90
2023-11-12T21:43:45.748Z,8.40
2023-11-12T21:46:15.873Z,8.60
2023-11-12T21:48:43.157Z,8.20
2023-11-12T21:51:10.219Z,8.90
2023-11-12T21:53:37.814Z,8.60
2023-11-12T21:56:08.133Z,8.00
2023-11-12T21:58:36.074Z,7.60
2023-11-12T22:01:03.105Z,7.70
2023-11-12T22:03:30.271Z,7.60
2023-11-12T22:05:57.133Z,8.00
2023-11-12T22:08:24.253Z,8.00
2023-11-12T22:10:51.279Z,8.60
2023-11-12T22:13:20.999Z,7.70
2023-11-12T22:15:48.810Z,8.50
2023-11-12T22:18:17.573Z,8.10
2023-11-12T22:20:44.719Z,7.90
2023-11-12T22:23:12.388Z,8.10
2023-11-12T22:25:39.418Z,7.30
2023-11-12T22:28:06.690Z,6.80
2023-11-12T22:30:33.771Z,7.10
2023-11-12T22:33:00.987Z,7.80
2023-11-12T22:35:28.253Z,7.90
2023-11-12T22:37:55.472Z,7.00
2023-11-12T22:40:26.158Z,6.90
2023-11-12T22:42:53.600Z,7.00
2023-11-12T22:45:20.866Z,7.10
2023-11-12T22:47:47.617Z,7.40
2023-11-12T22:50:17.739Z,7.30
2023-11-12T22:52:44.996Z,7.30
2023-11-12T22:55:12.075Z,7.00
2023-11-12T22:57:40.509Z,7.50
2023-11-12T23:00:40.998Z,7.20
2023-11-12T23:03:14.109Z,7.10
2023-11-12T23:05:45.063Z,7.20
2023-11-12T23:08:12.360Z,7.50
2023-11-12T23:10:40.549Z,7.20
2023-11-12T23:13:07.773Z,7.70
2023-11-12T23:15:35.157Z,8.20
2023-11-12T23:18:04.092Z,7.80
2023-11-12T23:20:31.927Z,8.20
2023-11-12T23:23:01.942Z,8.70
2023-11-12T23:25:30.740Z,7.70
2023-11-12T23:27:58.287Z,8.10
2023-11-12T23:30:25.745Z,9.30
2023-11-12T23:32:53.600Z,9.00
2023-11-12T23:35:21.888Z,9.10
2023-11-12T23:37:49.138Z,9.80
2023-11-12T23:40:16.911Z,9.50
2023-11-12T23:42:45.023Z,10.50
2023-11-12T23:45:12.579Z,9.20
2023-11-12T23:47:40.446Z,9.80
2023-11-12T23:50:08.470Z,10.80
2023-11-12T23:52:35.929Z,10.70
2023-11-12T23:55:05.919Z,10.00
2023-11-12T23:57:34.610Z,9.60
